createdAt,value
2022-10-29T03:55:10.008Z,88.01
2022-10-29T03:58:37.487Z,88.07
2022-10-29T04:02:04.331Z,88.32
2022-10-29T04:05:32.297Z,88.54
2022-10-29T04:09:00.055Z,88.61
2022-10-29T04:12:26.726Z,88.97
2022-10-29T04:15:56.907Z,88.90
2022-10-29T04:19:24.542Z,89.19
2022-10-29T04:30:31.016Z,89.34
2022-10-29T04:33:57.873Z,89.40
2022-10-29T04:37:25.054Z,89.31
2022-10-29T04:40:52.412Z,89.59
2022-10-29T04:44:20.166Z,89.88
2022-10-29T04:47:47.455Z,89.98
2022-10-29T04:51:22.133Z,89.83
2022-10-29T04:54:49.190Z,90.09
2022-10-29T04:58:17.757Z,90.27
2022-10-29T05:01:44.857Z,90.39
2022-10-29T05:05:12.162Z,90.54
2022-10-29T05:08:38.987Z,90.78
2022-10-29T05:12:08.244Z,90.79
2022-10-29T05:15:35.730Z,91.00
2022-10-29T05:19:02.926Z,90.98
2022-10-29T05:22:30.176Z,90.99
2022-10-29T05:25:58.045Z,91.13
2022-10-29T05:29:24.894Z,90.99
2022-10-29T05:32:51.641Z,91.05
2022-10-29T05:36:18.329Z,91.25
2022-10-29T05:39:45.137Z,91.49
2022-10-29T05:43:11.934Z,91.80
2022-10-29T05:46:38.978Z,91.69
2022-10-29T05:50:07.911Z,92.13
2022-10-29T05:53:34.811Z,92.37
2022-10-29T05:57:02.010Z,92.37
2022-10-29T06:00:31.719Z,92.63
2022-10-29T06:04:01.312Z,92.39
2022-10-29T06:07:28.451Z,92.58
2022-10-29T06:10:55.208Z,92.53
2022-10-29T06:14:22.533Z,92.61
2022-10-29T06:17:50.662Z,92.61
2022-10-29T06:21:17.414Z,92.75
2022-10-29T06:24:44.257Z,92.43
2022-10-29T06:28:15.471Z,92.62
2022-10-29T06:31:42.912Z,92.45
2022-10-29T06:35:11.304Z,92.28
2022-10-29T06:38:37.960Z,92.25
2022-10-29T06:42:04.809Z,92.28
2022-10-29T06:45:32.110Z,92.30
2022-10-29T06:48:59.332Z,92.52
2022-10-29T06:52:26.014Z,92.44
2022-10-29T06:55:52.651Z,92.36
2022-10-29T06:59:19.609Z,92.38
2022-10-29T07:02:46.362Z,92.25
2022-10-29T07:06:14.167Z,92.16
2022-10-29T07:09:43.132Z,92.16
2022-10-29T07:13:10.940Z,92.16
2022-10-29T07:16:38.758Z,92.13
2022-10-29T07:20:07.539Z,92.08
2022-10-29T07:23:34.171Z,92.06
2022-10-29T07:27:02.154Z,92.29
2022-10-29T07:30:29.003Z,92.10
2022-10-29T07:33:57.080Z,92.17
2022-10-29T07:37:23.845Z,91.85
2022-10-29T07:40:51.848Z,91.64
2022-10-29T07:44:18.475Z,91.71
2022-10-29T07:56:57.643Z,92.14
2022-10-29T08:00:24.236Z,91.90
2022-10-29T08:03:52.372Z,91.97
2022-10-29T08:07:19.207Z,91.85
2022-10-29T08:10:46.285Z,91.82
2022-10-29T08:14:14.978Z,91.79
2022-10-29T08:17:43.512Z,91.59
2022-10-29T08:21:10.501Z,91.65
2022-10-29T08:24:37.561Z,91.51
2022-10-29T08:28:05.892Z,91.26
2022-10-29T08:31:32.688Z,90.70
2022-10-29T08:34:59.775Z,90.58
2022-10-29T08:38:27.424Z,90.29
2022-10-29T08:42:10.420Z,89.94
2022-10-29T08:45:46.765Z,89.24
2022-10-29T08:49:18.713Z,88.67
2022-10-29T08:52:58.669Z,88.17
2022-10-29T08:56:34.812Z,88.23
2022-10-29T09:03:40.947Z,87.41
2022-10-29T09:07:28.838Z,86.82
2022-10-29T09:10:58.623Z,86.46
2022-10-29T09:14:47.527Z,86.08
2022-10-29T09:18:36.415Z,85.49
2022-10-29T09:22:15.787Z,85.22
2022-10-29T09:25:51.046Z,84.88
2022-10-29T09:29:39.532Z,84.32
2022-10-29T09:33:12.741Z,83.97
2022-10-29T09:36:40.617Z,83.32
2022-10-29T09:40:15.565Z,83.27
2022-10-29T09:43:49.515Z,82.97
2022-10-29T09:47:25.297Z,82.59
2022-10-29T09:51:01.008Z,81.84
2022-10-29T09:54:30.286Z,81.82
2022-10-29T09:57:59.111Z,81.46
2022-10-29T10:01:26.100Z,80.24
2022-10-29T10:04:56.950Z,80.00
2022-10-29T10:08:23.645Z,80.58
2022-10-29T10:11:54.361Z,79.86
2022-10-29T10:15:27.941Z,79.55
2022-10-29T10:18:55.383Z,79.70
2022-10-29T10:22:24.362Z,79.10
2022-10-29T10:25:52.490Z,79.10
2022-10-29T10:29:22.035Z,78.92
2022-10-29T10:32:49.189Z,78.94
2022-10-29T10:36:16.461Z,78.87
2022-10-29T10:39:45.840Z,78.67
2022-10-29T10:43:22.853Z,78.14
2022-10-29T10:46:51.022Z,78.00
2022-10-29T10:50:22.982Z,77.99
2022-10-29T10:53:50.390Z,76.93
2022-10-29T10:57:26.400Z,76.63
2022-10-29T11:00:59.813Z,76.17
2022-10-29T11:04:34.227Z,76.60
2022-10-29T11:08:08.122Z,76.43
2022-10-29T11:11:38.469Z,75.34
2022-10-29T11:15:13.160Z,75.01
2022-10-29T11:18:44.832Z,74.76
2022-10-29T11:22:20.969Z,74.60
2022-10-29T11:25:52.593Z,74.84
2022-10-29T11:29:26.158Z,74.96
2022-10-29T11:32:59.852Z,74.62
2022-10-29T11:36:31.613Z,74.49
2022-10-29T11:40:03.286Z,74.57
2022-10-29T11:43:30.079Z,73.62
2022-10-29T11:47:17.057Z,73.14
2022-10-29T11:50:54.232Z,73.44
2022-10-29T11:54:36.295Z,73.56
2022-10-29T11:58:10.069Z,73.31
2022-10-29T12:01:41.792Z,73.14
2022-10-29T12:05:18.476Z,73.07
2022-10-29T12:08:57.382Z,73.11
2022-10-29T12:12:31.302Z,73.29
2022-10-29T12:16:10.664Z,73.31
2022-10-29T12:19:47.955Z,73.44
2022-10-29T12:23:26.232Z,73.39
2022-10-29T12:27:00.617Z,73.66
2022-10-29T12:30:29.961Z,73.91
2022-10-29T12:33:59.287Z,73.98
2022-10-29T12:37:36.836Z,73.91
2022-10-29T12:41:07.863Z,73.84
2022-10-29T12:44:47.467Z,74.27
2022-10-29T12:48:16.874Z,73.98
2022-10-29T12:51:51.093Z,74.00
2022-10-29T12:55:19.751Z,73.66
2022-10-29T12:58:52.896Z,73.47
2022-10-29T13:02:45.830Z,73.41
2022-10-29T13:06:57.139Z,73.43
2022-10-29T13:10:55.219Z,73.66
2022-10-29T13:14:29.496Z,73.71
2022-10-29T13:18:00.572Z,73.65
2022-10-29T13:22:01.227Z,73.48
2022-10-29T13:25:51.717Z,73.54
2022-10-29T13:29:48.586Z,73.47
2022-10-29T13:33:45.919Z,73.19
2022-10-29T13:37:40.102Z,73.00
2022-10-29T13:41:19.235Z,72.91
2022-10-29T13:44:46.373Z,72.78
2022-10-29T13:48:23.569Z,72.97
2022-10-29T13:52:00.133Z,73.30
2022-10-29T13:55:31.294Z,73.43
2022-10-29T13:59:00.628Z,73.29
2022-10-29T14:02:36.755Z,73.52
2022-10-29T14:06:08.015Z,73.70
2022-10-29T14:09:43.960Z,73.77
2022-10-29T14:13:24.799Z,73.66
2022-10-29T14:16:51.863Z,73.81
2022-10-29T14:20:28.046Z,73.95
2022-10-29T14:24:02.907Z,74.18
2022-10-29T14:27:29.715Z,74.22
2022-10-29T14:31:13.095Z,74.45
2022-10-29T14:34:41.901Z,74.47
2022-10-29T14:38:11.475Z,74.58
2022-10-29T14:41:40.817Z,74.50
2022-10-29T14:45:18.673Z,74.61
2022-10-29T14:48:57.460Z,74.85
2022-10-29T14:52:38.706Z,75.11
2022-10-29T14:56:10.885Z,75.15
2022-10-29T14:59:38.577Z,75.20
2022-10-29T15:03:07.124Z,75.27
2022-10-29T15:06:34.079Z,75.35
2022-10-29T15:10:21.448Z,75.47
2022-10-29T15:13:48.647Z,75.70
2022-10-29T15:17:21.939Z,75.86
2022-10-29T15:20:48.976Z,75.87
2022-10-29T15:24:21.357Z,76.00
2022-10-29T15:27:49.596Z,76.14
2022-10-29T15:31:22.882Z,76.23
2022-10-29T15:34:52.501Z,76.40
2022-10-29T15:38:35.859Z,76.47
2022-10-29T15:42:03.375Z,76.62
2022-10-29T15:45:30.862Z,76.74
2022-10-29T15:48:58.079Z,76.86
2022-10-29T15:52:38.303Z,77.05
2022-10-29T15:56:05.220Z,77.31
2022-10-29T15:59:32.199Z,77.66
2022-10-29T16:03:02.151Z,77.76
2022-10-29T16:06:28.794Z,77.94
2022-10-29T16:09:58.520Z,78.01
2022-10-29T16:13:24.252Z,78.14
2022-10-29T16:16:50.831Z,78.30
2022-10-29T16:20:20.163Z,78.34
2022-10-29T16:23:47.304Z,78.56
2022-10-29T16:27:18.527Z,78.67
2022-10-29T16:30:47.076Z,78.84
2022-10-29T16:34:18.160Z,78.94
2022-10-29T16:37:47.433Z,79.05
2022-10-29T16:41:15.677Z,79.13
2022-10-29T16:44:46.192Z,79.39
2022-10-29T16:48:12.977Z,79.52
2022-10-29T16:51:39.830Z,79.73
2022-10-29T16:55:08.082Z,79.98
2022-10-29T16:58:34.663Z,80.00
2022-10-29T17:02:01.849Z,80.15
2022-10-29T17:05:28.716Z,80.35
2022-10-29T17:08:55.431Z,80.67
2022-10-29T17:12:22.081Z,80.89
2022-10-29T17:15:48.813Z,81.18
2022-10-29T17:19:16.519Z,81.29
2022-10-29T17:22:43.427Z,81.42
2022-10-29T17:26:10.099Z,81.53
2022-10-29T17:29:37.629Z,81.68
2022-10-29T17:33:04.226Z,81.76
2022-10-29T17:36:31.004Z,81.95
2022-10-29T17:40:01.430Z,82.25
2022-10-29T17:43:32.234Z,82.29
2022-10-29T17:46:58.818Z,82.43
2022-10-29T17:50:26.805Z,82.58
2022-10-29T17:53:53.812Z,82.76
2022-10-29T17:57:20.576Z,83.00
2022-10-29T18:00:48.352Z,82.92
2022-10-29T18:04:15.255Z,82.99
2022-10-29T18:07:41.913Z,83.10
2022-10-29T18:11:10.593Z,83.14
2022-10-29T18:14:37.817Z,83.37
2022-10-29T18:18:04.575Z,83.51
2022-10-29T18:21:31.655Z,83.50
2022-10-29T18:24:58.973Z,83.76
2022-10-29T18:28:26.015Z,83.85
2022-10-29T18:31:52.585Z,83.99
2022-10-29T18:35:19.240Z,84.14
2022-10-29T18:38:49.754Z,84.12
2022-10-29T18:42:16.481Z,84.08
2022-10-29T18:45:43.061Z,84.06
2022-10-29T18:49:10.586Z,84.08
2022-10-29T18:52:37.589Z,84.14
2022-10-29T18:56:05.901Z,84.13
2022-10-29T18:59:32.451Z,84.26
2022-10-29T19:03:00.132Z,84.14
2022-10-29T19:06:29.508Z,84.21
2022-10-29T19:09:56.486Z,84.31
2022-10-29T19:13:23.663Z,84.27
2022-10-29T19:16:50.803Z,84.30
2022-10-29T19:20:17.837Z,84.38
2022-10-29T19:23:46.305Z,84.46
2022-10-29T19:27:12.921Z,84.54
2022-10-29T19:30:39.530Z,84.56
2022-10-29T19:34:08.568Z,84.63
2022-10-29T19:37:35.502Z,84.78
2022-10-29T19:41:02.606Z,84.78
2022-10-29T19:44:29.828Z,84.79
2022-10-29T19:47:56.775Z,84.82
2022-10-29T19:51:24.716Z,84.87
2022-10-29T19:54:51.833Z,84.92
2022-10-29T19:58:19.763Z,85.04
2022-10-29T20:01:48.617Z,85.09
2022-10-29T20:05:15.744Z,85.19
2022-10-29T20:08:42.790Z,85.36
2022-10-29T20:12:09.959Z,85.46
2022-10-29T20:15:39.011Z,85.63
2022-10-29T20:19:05.702Z,85.70
2022-10-29T20:22:32.346Z,85.80
2022-10-29T20:25:59.082Z,85.88
2022-10-29T20:29:25.664Z,86.10
2022-10-29T20:32:52.596Z,86.07
2022-10-29T20:36:19.628Z,86.17
2022-10-29T20:39:46.505Z,86.26
2022-10-29T20:43:13.475Z,86.24
2022-10-29T20:46:42.712Z,86.24
2022-10-29T20:50:11.343Z,86.28
2022-10-29T20:53:38.024Z,86.36
2022-10-29T20:57:04.659Z,86.41
2022-10-29T21:00:31.289Z,86.39
2022-10-29T21:03:57.869Z,86.48
2022-10-29T21:07:24.599Z,86.52
2022-10-29T21:10:51.155Z,86.57
2022-10-29T21:14:17.793Z,86.51
2022-10-29T21:17:44.712Z,86.55
2022-10-29T21:21:12.111Z,86.47
2022-10-29T21:24:40.374Z,86.55
2022-10-29T21:28:09.889Z,86.48
2022-10-29T21:31:36.530Z,86.46
2022-10-29T21:35:03.603Z,86.49
2022-10-29T21:38:32.753Z,86.50
2022-10-29T21:42:00.280Z,86.62
2022-10-29T21:45:27.016Z,86.61
2022-10-29T21:48:55.568Z,86.58
2022-10-29T21:52:22.346Z,86.74
2022-10-29T21:55:49.423Z,86.77
2022-10-29T21:59:16.008Z,86.73
2022-10-29T22:02:43.067Z,86.77
2022-10-29T22:06:13.373Z,86.76
2022-10-29T22:09:40.777Z,86.82
2022-10-29T22:13:10.388Z,86.90
2022-10-29T22:16:40.069Z,86.87
2022-10-29T22:20:08.105Z,87.05
2022-10-29T22:23:35.091Z,87.14
2022-10-29T22:27:01.957Z,87.29
2022-10-29T22:30:28.826Z,87.45
2022-10-29T22:33:55.676Z,87.57
2022-10-29T22:37:22.637Z,87.53
2022-10-29T22:40:49.196Z,87.77
2022-10-29T22:44:15.823Z,87.80
2022-10-29T22:47:42.587Z,88.03
2022-10-29T22:51:12.652Z,88.09
